Архив погоды в Оханске

Метеограмма Оханск
Среда, 26 Сентября
Время местн. Темп Ветер Видим Явления Облачность нижн/средн/верх Атм. давл. Влжн Точка росы ВНГО R Сост. почвы Tg s
Напр Скр Прв ур.ст ур.м изм
05:00 +13.7° Ю 3 - 50 км - облачно 744 758 +0.1 67% +7.7° - - - - -
02:00 +14.4° Ю 4 - 50 км - облачно с прояснениями 744 758 +0.1 61% +7.1° - - - - -
Вторник, 25 Сентября
Время местн. Темп Ветер Видим Явления Облачность нижн/средн/верх Атм. давл. Влжн Точка росы ВНГО R Сост. почвы Tg s
Напр Скр Прв ур.ст ур.м изм
23:00 +15.7° Ю 3 - более 50 км - облачно с прояснениями 744 758 -0.4 61% +8.2° 2.5 км - - - -
20:00 +15.8° Ю 3 - 50 км - облачно 744 759 -0.4 64% +8.9° 1 км 0 - - -
17:00 +17.9° Ю 6 11 50 км - облачно 745 759 -0.5 48% +6.7° 1 км - - - -
14:00 +16.8° Ю 6 11 50 км - облачно с прояснениями 745 759 +0.6 55% +7.8° 1 км - - - -
11:00 +16.2° Ю 5 10 50 км - переменная облачность 744 759 -0.1 53% +6.7° - - - - -
08:00 +12.6° Ю 4 - 50 км - переменная облачность 744 759 -0.8 78% +8.9° - 0 Сухая (без трещин) - -
05:00 +12.7° Ю 2 - 50 км - переменная облачность 745 760 0 84% +10° более 2.5 км - - - -
02:00 +13.8° Ю 1 - 50 км - переменная облачность 745 760 +0.1 83% +10.9° более 2.5 км - - - -
Понедельник, 24 Сентября
Время местн. Темп Ветер Видим Явления Облачность нижн/средн/верх Атм. давл. Влжн Точка росы ВНГО R Сост. почвы Tg s
Напр Скр Прв ур.ст ур.м изм
23:00 +15.1° Ю,Ю-В 3 - 50 км - ясно 745 760 +0.3 76% +10.9° более 2.5 км - - - -
20:00 +17.1° Ю 2 - 50 км - переменная облачность 745 760 +0.3 55% +8.1° более 2.5 км 0 - - -
17:00 +22.4° Ю,Ю-З 4 - 50 км - переменная облачность 745 759 -0.5 32% +4.8° более 2.5 км - - - -
14:00 +22.1° Ю 5 10 50 км - ясно 745 760 -0.4 31% +4.3° более 2.5 км - - - -
11:00 +16.5° Ю 3 - 50 км - ясно 746 760 -0.3 73% +11.7° более 2.5 км - - - -
08:00 +12.3° Ю 2 - 20 км - переменная облачность 746 761 -0.2 92% +11° - 0 Влажная (без луж) - -
05:00 +12.5° Ю 3 - 50 км - ясно 746 761 -0.5 91% +11.1° более 2.5 км - - - -
02:00 +12.9° Ю 3 - 50 км - переменная облачность 747 761 -0.7 91% +11.4° более 2.5 км - - - -
Воскресенье, 23 Сентября
Время местн. Темп Ветер Видим Явления Облачность нижн/средн/верх Атм. давл. Влжн Точка росы ВНГО R Сост. почвы Tg s
Напр Скр Прв ур.ст ур.м изм
23:00 +14.1° Ю 4 - 50 км - переменная облачность 747 762 -0.4 88% +12.1° более 2.5 км - - - -
20:00 +16.2° Ю 2 - 50 км - переменная облачность 748 762 -0.5 79% +12.5° более 2.5 км 0 - - -
17:00 +20.5° Ю 3 - 50 км небо без изменений {туман} переменная облачность 748 762 -0.8 62% +12.9° 1 км - - - -
14:00 +17.1° Ю 3 - 50 км небо без изменений {туман} переменная облачность 749 763 -0.7 85% +14.6° 1 км - - - -
11:00 +12.2° Ю 2 - 0.5 км туман, небо видно ясно 750 764 0 92% +10.9° более 2.5 км - - - -
08:00 +10.2° Ю 2 - 0.2 км туман, небо видно ясно 750 765 +0.2 92% +9° более 2.5 км 0 Влажная (без луж) - -
05:00 +10.1° Ю-В 1 - 2 км дымка ясно 750 764 +0.5 92% +8.9° более 2.5 км - - - -
02:00 +10.3° Ю,Ю-З 2 - 2 км дымка переменная облачность 749 764 +0.2 92% +9.1° - - - - -